Time;durP1;ratioP1;P1;durP2;ratioP2;P2;SDS_P1;SDS_P2;PMS_P1;PMS_P2;Temp;Humidity;BMP_temperature;BMP_pressure;BME280_temperature;BME280_humidity;BME280_pressure;Samples;Min_cycle;Max_cycle;Signal;HPM_P1;HPM_P2
2021/04/12 00:02:42;;;;;;;2.00;1.90;;;;;;;1.18;77.68;101872.56;4380199;32;20069;-68
2021/04/12 00:05:27;;;;;;;2.28;2.17;;;;;;;1.17;78.52;101876.88;4390587;32;20685;-71
2021/04/12 00:08:07;;;;;;;1.80;1.80;;;;;;;1.12;79.34;101881.16;4390001;32;20905;-71
2021/04/12 00:11:01;;;;;;;1.87;1.87;;;;;;;1.09;78.31;101875.13;4389283;32;20179;-70
2021/04/12 00:13:36;;;;;;;1.90;1.80;;;;;;;1.06;78.86;101883.69;4386621;32;20061;-70
2021/04/12 00:16:08;;;;;;;1.95;1.87;;;;;;;0.97;79.26;101873.31;4392659;32;20078;-71
2021/04/12 00:18:42;;;;;;;2.10;2.00;;;;;;;0.84;80.27;101880.09;4376463;32;20103;-71
2021/04/12 00:21:40;;;;;;;2.10;2.00;;;;;;;0.59;79.22;101817.06;4389711;32;20072;-71
2021/04/12 00:24:17;;;;;;;1.90;1.80;;;;;;;0.93;80.48;101881.91;4379394;32;20064;-71
2021/04/12 00:27:00;;;;;;;2.10;2.00;;;;;;;0.88;80.48;101892.22;4387624;32;20173;-71
2021/04/12 00:29:41;;;;;;;2.00;1.90;;;;;;;0.87;80.89;101881.88;4387529;32;20079;-70
2021/04/12 00:32:16;;;;;;;1.92;1.83;;;;;;;0.83;80.62;101878.38;4383028;32;20491;-72
2021/04/12 00:35:10;;;;;;;2.00;1.90;;;;;;;0.80;80.90;101878.34;4369930;32;20083;-72
2021/04/12 00:37:45;;;;;;;2.00;1.90;;;;;;;0.75;80.98;101880.91;4373840;32;20099;-71
2021/04/12 00:40:34;;;;;;;2.10;2.00;;;;;;;0.69;81.55;101880.87;4376771;32;20073;-72
2021/04/12 00:43:18;;;;;;;2.28;2.17;;;;;;;0.70;81.75;101886.88;4387558;32;20149;-69
2021/04/12 00:46:07;;;;;;;2.10;2.00;;;;;;;0.61;81.60;101867.03;4384906;32;20124;-71
2021/04/12 00:49:04;;;;;;;1.80;1.80;;;;;;;0.68;81.22;101873.97;4388322;32;20061;-71
2021/04/12 00:51:35;;;;;;;1.80;1.80;;;;;;;0.71;81.34;101881.75;4384901;32;20093;-71
2021/04/12 00:54:09;;;;;;;2.10;2.00;;;;;;;0.72;81.81;101890.34;4377556;32;20084;-70
2021/04/12 00:56:45;;;;;;;1.77;1.77;;;;;;;0.71;81.77;101889.50;4402338;32;20543;-69
2021/04/12 00:59:44;;;;;;;2.20;2.10;;;;;;;0.69;81.61;101891.19;4364840;32;20077;-70
2021/04/12 01:02:48;;;;;;;1.90;1.80;;;;;;;0.65;82.18;101898.91;4370455;32;20089;-69
2021/04/12 01:05:30;;;;;;;2.20;2.10;;;;;;;0.61;82.31;101894.59;4388325;32;20123;-69
2021/04/12 01:08:14;;;;;;;2.10;2.00;;;;;;;0.63;82.30;101903.22;4379311;32;20158;-69
2021/04/12 01:10:44;;;;;;;1.80;1.80;;;;;;;0.59;82.36;101904.91;4383591;32;20093;-69
2021/04/12 01:13:46;;;;;;;2.00;1.90;;;;;;;0.54;82.64;101919.47;4382790;32;20066;-68
2021/04/12 01:16:24;;;;;;;2.22;2.12;;;;;;;0.49;82.82;101954.75;4382273;32;20065;-70
2021/04/12 01:19:25;;;;;;;2.03;1.92;;;;;;;0.48;83.11;101920.31;4377268;32;20088;-72
2021/04/12 01:22:24;;;;;;;1.70;1.70;;;;;;;0.43;83.57;101931.44;4381175;32;20166;-72
2021/04/12 01:25:01;;;;;;;1.80;1.80;;;;;;;0.40;83.98;101927.09;4390490;32;20610;-72
2021/04/12 01:28:04;;;;;;;2.15;2.05;;;;;;;0.36;83.63;101946.88;4375725;32;20103;-72
2021/04/12 01:30:57;;;;;;;2.10;2.00;;;;;;;0.42;84.02;101937.44;4393626;32;20064;-71
2021/04/12 01:33:22;;;;;;;1.70;1.70;;;;;;;0.39;84.17;101936.56;4411012;32;20061;-71
2021/04/12 01:36:13;;;;;;;2.10;2.00;;;;;;;0.36;84.03;101944.28;4400297;32;20175;-71
2021/04/12 01:38:42;;;;;;;2.10;2.00;;;;;;;0.40;84.56;101937.41;4385738;32;20096;-71
2021/04/12 01:41:16;;;;;;;1.80;1.80;;;;;;;0.44;83.45;101944.38;4375345;32;20077;-70
2021/04/12 01:44:00;;;;;;;1.80;1.80;;;;;;;0.41;83.77;101956.38;4409495;32;20100;-71
2021/04/12 01:46:32;;;;;;;1.98;1.87;;;;;;;0.33;83.40;101935.66;4399374;32;20448;-70
2021/04/12 01:49:06;;;;;;;2.10;2.00;;;;;;;0.37;83.88;101955.47;4375293;32;20174;-71
2021/04/12 01:51:50;;;;;;;2.20;2.10;;;;;;;0.33;83.81;101954.59;4400629;32;20150;-71
2021/04/12 01:54:30;;;;;;;1.75;1.75;;;;;;;0.28;84.00;101964.00;4402579;32;20228;-69
2021/04/12 01:57:07;;;;;;;2.22;2.12;;;;;;;0.32;83.97;101967.47;4400332;32;20230;-70
2021/04/12 01:59:45;;;;;;;2.10;2.00;;;;;;;0.27;84.30;101970.00;4384181;32;20069;-70
2021/04/12 02:02:17;;;;;;;2.10;2.00;;;;;;;0.28;84.21;101974.34;4385219;32;20162;-69
2021/04/12 02:05:01;;;;;;;1.80;1.80;;;;;;;0.27;85.03;101977.75;4388954;32;20654;-71
2021/04/12 02:07:26;;;;;;;2.00;1.90;;;;;;;0.29;84.15;101982.94;4386188;32;20116;-71
2021/04/12 02:10:08;;;;;;;2.00;1.90;;;;;;;0.24;84.54;101980.31;4397079;32;20073;-69
2021/04/12 02:12:40;;;;;;;2.08;1.98;;;;;;;0.22;85.20;101976.84;4387966;32;20148;-69
2021/04/12 02:15:29;;;;;;;1.73;1.73;;;;;;;0.22;84.68;101988.88;4413603;32;20862;-69
2021/04/12 02:18:30;;;;;;;2.10;2.00;;;;;;;0.19;84.98;101992.28;4386614;32;20065;-69
2021/04/12 02:21:27;;;;;;;1.70;1.70;;;;;;;0.13;85.72;101987.06;4380088;32;20092;-69
2021/04/12 02:24:16;;;;;;;2.00;1.90;;;;;;;0.04;85.02;101971.47;4397728;32;20127;-69
2021/04/12 02:26:52;;;;;;;2.12;2.03;;;;;;;0.08;85.64;101986.13;4390766;32;20087;-71
2021/04/12 02:29:29;;;;;;;2.20;2.10;;;;;;;0.07;85.00;101992.16;4388888;32;20305;-71
2021/04/12 02:32:26;;;;;;;1.75;1.75;;;;;;;-0.02;85.67;101995.47;4391356;32;20073;-71
2021/04/12 02:35:05;;;;;;;1.60;1.60;;;;;;;-0.05;85.96;102003.19;4402548;32;20104;-71
2021/04/12 02:37:54;;;;;;;2.20;2.10;;;;;;;-0.39;85.24;101955.47;4384193;32;20084;-71
2021/04/12 02:40:32;;;;;;;1.80;1.80;;;;;;;-0.15;85.72;102007.38;4396190;32;20135;-71
2021/04/12 02:43:05;;;;;;;2.00;1.90;;;;;;;-0.29;86.11;101996.00;4376002;32;20215;-71
2021/04/12 02:45:56;;;;;;;2.03;1.92;;;;;;;-0.54;85.76;101967.28;4384685;32;20515;-71
2021/04/12 02:48:43;;;;;;;1.80;1.80;;;;;;;-0.25;86.42;102021.00;4376390;32;20103;-71
2021/04/12 02:51:40;;;;;;;1.80;1.80;;;;;;;-0.27;86.09;102020.97;4394912;32;20142;-70
2021/04/12 02:54:12;;;;;;;1.80;1.80;;;;;;;-0.37;86.04;102013.09;4400352;32;20114;-70
2021/04/12 02:57:08;;;;;;;1.80;1.80;;;;;;;-0.25;86.22;102019.25;4374782;32;20073;-70
2021/04/12 03:00:15;;;;;;;2.00;1.90;;;;;;;-0.23;86.57;102024.47;4395186;32;20132;-70
2021/04/12 03:02:48;;;;;;;2.00;1.90;;;;;;;-0.24;86.30;102033.91;4397884;32;20088;-71
2021/04/12 03:05:19;;;;;;;1.90;1.85;;;;;;;-0.22;86.72;102032.22;4387213;32;20175;-72
2021/04/12 03:07:47;;;;;;;1.80;1.80;;;;;;;-0.25;86.58;102028.72;4401218;32;20090;-71
2021/04/12 03:10:20;;;;;;;2.00;1.90;;;;;;;-0.28;86.87;102028.66;4399880;32;20084;-70
2021/04/12 03:12:57;;;;;;;2.12;2.03;;;;;;;-0.34;86.39;102032.06;4383465;32;20130;-70
2021/04/12 03:15:36;;;;;;;2.00;1.90;;;;;;;-0.39;86.16;102022.50;4373477;32;20092;-71
2021/04/12 03:18:41;;;;;;;2.00;1.90;;;;;;;-0.48;87.02;102007.75;4374303;32;20906;-71
2021/04/12 03:21:12;;;;;;;2.53;2.45;;;;;;;-0.28;87.22;102029.56;4396169;32;20079;-71
2021/04/12 03:23:59;;;;;;;1.80;1.80;;;;;;;-0.28;87.00;102031.25;4397034;32;20080;-70
2021/04/12 03:26:46;;;;;;;1.95;1.90;;;;;;;-0.30;86.90;102020.03;4405492;32;20251;-70
2021/04/12 03:29:38;;;;;;;1.95;1.90;;;;;;;-0.29;86.77;102008.91;4399576;32;20134;-70
2021/04/12 03:32:10;;;;;;;2.00;1.90;;;;;;;-0.21;87.26;102021.03;4392435;32;20089;-71
2021/04/12 03:35:04;;;;;;;1.80;1.80;;;;;;;-1.17;86.76;101871.00;4384578;32;20078;-68
2021/04/12 03:37:42;;;;;;;1.65;1.65;;;;;;;-0.21;86.56;102023.63;4390330;32;20076;-68
2021/04/12 03:40:23;;;;;;;1.95;1.85;;;;;;;-0.22;86.64;102029.66;4377905;32;20061;-68
2021/04/12 03:43:09;;;;;;;2.20;2.10;;;;;;;-0.27;86.36;102040.75;4400501;32;20087;-69
2021/04/12 03:45:41;;;;;;;1.83;1.80;;;;;;;-0.36;86.68;102044.06;4386828;32;20340;-69
2021/04/12 03:48:25;;;;;;;1.80;1.80;;;;;;;-0.37;87.00;102044.88;4394748;32;20135;-68
2021/04/12 03:51:01;;;;;;;2.00;1.90;;;;;;;-0.38;87.09;102043.19;4412061;32;20087;-71
2021/04/12 03:53:53;;;;;;;2.08;1.98;;;;;;;-0.43;86.60;102045.66;4385960;32;20080;-68
2021/04/12 03:56:41;;;;;;;1.98;1.87;;;;;;;-0.44;87.07;102046.53;4397872;32;20828;-69
2021/04/12 03:59:23;;;;;;;2.00;1.90;;;;;;;-0.52;87.07;102042.97;4402222;32;20551;-69
2021/04/12 04:02:16;;;;;;;2.10;2.00;;;;;;;-0.58;86.98;102045.44;4377452;32;20864;-69
2021/04/12 04:04:52;;;;;;;1.80;1.80;;;;;;;-0.59;87.53;102054.00;4401302;32;20139;-68
2021/04/12 04:07:40;;;;;;;2.10;2.00;;;;;;;-0.58;86.84;102060.91;4384212;32;20563;-69
2021/04/12 04:10:15;;;;;;;1.80;1.80;;;;;;;-0.65;86.94;102061.66;4385240;32;20725;-69
2021/04/12 04:13:02;;;;;;;1.92;1.90;;;;;;;-0.69;87.10;102063.31;4401767;32;20532;-69
2021/04/12 04:15:47;;;;;;;2.10;2.00;;;;;;;-0.82;87.05;102061.38;4402851;32;20085;-69
2021/04/12 04:18:22;;;;;;;1.70;1.70;;;;;;;-0.82;87.95;102075.13;4376105;32;20077;-69
2021/04/12 04:21:35;;;;;;;1.80;1.80;;;;;;;-0.82;87.46;102082.00;4397239;32;20089;-69
2021/04/12 04:24:17;;;;;;;1.87;1.85;;;;;;;-0.83;87.91;102072.53;4377722;32;20069;-68
2021/04/12 04:26:49;;;;;;;1.75;1.75;;;;;;;-1.11;87.58;102027.38;4391189;32;20074;-68
2021/04/12 04:29:26;;;;;;;1.98;1.90;;;;;;;-0.86;87.63;102075.06;4391429;32;20061;-69
2021/04/12 04:32:16;;;;;;;2.00;1.90;;;;;;;-0.86;87.72;102077.66;4403392;32;20087;-70
2021/04/12 04:35:04;;;;;;;2.15;2.05;;;;;;;-0.91;88.27;102084.41;4382154;32;20085;-71
2021/04/12 04:37:57;;;;;;;2.17;2.08;;;;;;;-2.22;87.28;101894.94;4385598;32;20096;-71
2021/04/12 04:40:41;;;;;;;1.70;1.70;;;;;;;-1.04;87.48;102079.06;4387825;32;20095;-70
2021/04/12 04:43:32;;;;;;;1.70;1.70;;;;;;;-1.04;88.01;102073.03;4408522;32;20706;-70
2021/04/12 04:46:22;;;;;;;1.80;1.80;;;;;;;-1.07;88.34;102075.53;4387952;32;20053;-69
2021/04/12 04:48:53;;;;;;;1.70;1.70;;;;;;;-1.08;88.37;102084.13;4411034;32;20091;-69
2021/04/12 04:51:52;;;;;;;1.80;1.80;;;;;;;-1.02;88.50;102089.38;4385808;32;20454;-69
2021/04/12 04:54:55;;;;;;;1.67;1.67;;;;;;;-0.92;88.14;102093.88;4382859;32;20593;-68
2021/04/12 04:58:00;;;;;;;2.00;1.90;;;;;;;-0.91;88.35;102095.59;4408524;32;20080;-70
2021/04/12 05:00:49;;;;;;;1.75;1.75;;;;;;;-0.91;88.72;102098.16;4402374;32;20073;-70
2021/04/12 05:03:49;;;;;;;2.00;1.90;;;;;;;-0.78;88.27;102103.53;4390509;32;20073;-68
2021/04/12 05:06:45;;;;;;;1.80;1.80;;;;;;;-0.70;88.84;102114.84;4397954;32;20077;-68
2021/04/12 05:09:35;;;;;;;1.70;1.70;;;;;;;-0.63;88.54;102103.78;4387406;32;20087;-68
2021/04/12 05:12:22;;;;;;;2.00;1.90;;;;;;;-0.59;87.89;102113.31;4393333;32;20200;-68
2021/04/12 05:15:00;;;;;;;2.00;1.90;;;;;;;-0.57;88.48;102113.34;4413824;32;20516;-68
2021/04/12 05:18:12;;;;;;;1.80;1.80;;;;;;;-0.55;88.64;102115.09;4385952;32;20132;-70
2021/04/12 05:20:56;;;;;;;1.92;1.90;;;;;;;-0.51;88.00;102122.03;4368981;32;20092;-70
2021/04/12 05:23:43;;;;;;;4.30;4.10;;;;;;;-0.52;88.53;102133.22;4398332;32;20087;-70
2021/04/12 05:26:30;;;;;;;2.10;2.00;;;;;;;-0.53;88.09;102154.66;4399029;32;20439;-70
2021/04/12 05:29:00;;;;;;;1.80;1.80;;;;;;;-0.48;87.94;102134.09;4413160;32;20204;-70
2021/04/12 05:31:31;;;;;;;1.60;1.60;;;;;;;-0.52;87.94;102124.59;4386586;32;20117;-70
2021/04/12 05:34:08;;;;;;;1.80;1.80;;;;;;;-0.28;87.85;102139.59;4383104;32;20168;-70
2021/04/12 05:36:58;;;;;;;2.10;2.00;;;;;;;-0.42;88.01;102092.97;4388748;32;20109;-70
2021/04/12 05:39:42;;;;;;;1.98;1.87;;;;;;;0.05;87.91;102148.72;4383248;32;20124;-70
2021/04/12 05:42:38;;;;;;;1.80;1.80;;;;;;;0.26;87.40;102150.72;4387778;32;20092;-70
2021/04/12 05:45:25;;;;;;;2.15;2.05;;;;;;;0.38;86.31;102153.47;4390951;32;20061;-69
2021/04/12 05:48:11;;;;;;;2.10;2.00;;;;;;;0.56;85.98;102160.56;4389147;32;20258;-70
2021/04/12 05:50:55;;;;;;;2.10;2.00;;;;;;;0.57;85.89;102160.59;4397892;32;20147;-70
2021/04/12 05:53:26;;;;;;;2.00;1.90;;;;;;;0.69;85.09;102162.47;4378085;32;20066;-70
2021/04/12 05:56:22;;;;;;;1.90;1.90;;;;;;;0.59;84.89;102164.06;4404987;32;20645;-70
2021/04/12 05:59:02;;;;;;;2.10;2.00;;;;;;;0.68;84.56;102170.22;4397146;32;20069;-69
2021/04/12 06:02:01;;;;;;;2.10;2.00;;;;;;;0.75;84.41;102170.31;4382441;32;20065;-70
2021/04/12 06:05:02;;;;;;;2.20;2.10;;;;;;;0.95;84.60;102174.84;4398977;32;20093;-70
2021/04/12 06:07:55;;;;;;;2.20;2.10;;;;;;;1.24;84.07;102177.72;4383571;32;20227;-67
2021/04/12 06:10:40;;;;;;;2.40;2.30;;;;;;;1.46;82.89;102171.03;4393838;32;20693;-66
2021/04/12 06:13:30;;;;;;;2.00;1.90;;;;;;;1.45;81.71;102174.50;4383258;32;20115;-67
2021/04/12 06:16:17;;;;;;;2.40;2.30;;;;;;;1.38;81.27;102181.34;4388645;32;20144;-69
2021/04/12 06:18:42;;;;;;;2.10;2.00;;;;;;;1.52;81.29;102193.53;4392771;32;20199;-67
2021/04/12 06:21:28;;;;;;;2.30;2.20;;;;;;;1.72;81.70;102197.16;4400299;32;20936;-67
2021/04/12 06:24:04;;;;;;;1.80;1.80;;;;;;;1.85;81.16;102192.97;4381750;32;20080;-68
2021/04/12 06:26:44;;;;;;;2.10;2.00;;;;;;;2.07;80.93;102193.13;4384132;32;20081;-67
2021/04/12 06:29:42;;;;;;;2.10;2.00;;;;;;;2.38;80.26;102201.94;4395149;32;20795;-67
2021/04/12 06:32:16;;;;;;;2.10;2.00;;;;;;;2.43;78.77;102199.41;4380739;32;20158;-67
2021/04/12 06:35:20;;;;;;;2.28;2.17;;;;;;;2.64;79.13;102207.28;4403739;32;20089;-64
2021/04/12 06:37:54;;;;;;;2.37;2.28;;;;;;;2.49;78.74;102209.81;4399545;32;20972;-64
2021/04/12 06:40:29;;;;;;;2.10;2.00;;;;;;;2.49;78.11;102215.00;4381853;32;20126;-64
2021/04/12 06:43:28;;;;;;;2.30;2.20;;;;;;;2.80;78.06;102216.00;4407013;32;20105;-64
2021/04/12 06:46:30;;;;;;;2.25;2.15;;;;;;;3.09;76.94;102218.72;4379712;32;20091;-64
2021/04/12 06:49:44;;;;;;;2.20;2.10;;;;;;;2.89;76.31;102221.22;4406521;32;20093;-66
2021/04/12 06:52:18;;;;;;;;;;;;;;;2.66;77.75;102223.69;4363175;32;20113;-66
2021/04/12 06:55:15;;;;;;;2.22;2.12;;;;;;;2.82;77.95;102223.78;4396089;32;19983;-66
2021/04/12 06:58:07;;;;;;;2.17;2.08;;;;;;;2.91;78.49;102234.22;4403665;32;20091;-66
2021/04/12 07:00:57;;;;;;;2.10;2.00;;;;;;;3.12;76.86;102229.09;4396214;32;20780;-65
2021/04/12 07:04:11;;;;;;;2.00;1.90;;;;;;;3.07;76.95;102241.19;4397394;32;20065;-66
2021/04/12 07:06:52;;;;;;;2.20;2.10;;;;;;;3.07;76.80;102236.00;4381363;32;20091;-64
2021/04/12 07:09:55;;;;;;;2.40;2.30;;;;;;;3.22;78.04;102247.28;4396087;32;20072;-64
2021/04/12 07:12:41;;;;;;;2.30;2.20;;;;;;;3.16;77.09;102242.94;4385683;32;20107;-65
2021/04/12 07:15:32;;;;;;;2.20;2.10;;;;;;;3.28;77.64;102253.34;4412893;32;20172;-68
2021/04/12 07:18:35;;;;;;;2.30;2.20;;;;;;;3.56;77.43;102262.06;4398752;32;20134;-67
2021/04/12 07:21:19;;;;;;;2.40;2.30;;;;;;;3.74;76.56;102253.44;4401532;32;20081;-68
2021/04/12 07:24:06;;;;;;;2.25;2.15;;;;;;;3.99;75.64;102246.56;4396571;32;20721;-68
2021/04/12 07:26:53;;;;;;;2.72;2.62;;;;;;;4.22;75.14;102250.87;4408016;32;20092;-68
2021/04/12 07:29:39;;;;;;;2.40;2.30;;;;;;;4.11;74.00;102257.78;4412396;32;20085;-68
2021/04/12 07:32:42;;;;;;;2.25;2.15;;;;;;;4.17;73.87;102257.81;4384947;32;20122;-68
2021/04/12 07:35:26;;;;;;;2.30;2.20;;;;;;;3.63;75.21;102272.47;4407814;32;20154;-68
2021/04/12 07:38:10;;;;;;;2.50;2.40;;;;;;;3.53;76.31;102266.41;4399509;32;20069;-68
2021/04/12 07:41:30;;;;;;;2.40;2.30;;;;;;;3.99;74.33;102263.87;4384797;32;20288;-68
2021/04/12 07:44:29;;;;;;;2.53;2.42;;;;;;;3.73;75.82;102271.66;4332060;32;20108;-68
2021/04/12 07:47:25;;;;;;;2.37;2.28;;;;;;;4.34;75.07;102266.44;4403655;32;20112;-67
2021/04/12 07:50:00;;;;;;;2.37;2.28;;;;;;;4.70;73.37;102271.59;4397595;32;20676;-67
2021/04/12 07:52:50;;;;;;;2.40;2.30;;;;;;;3.70;74.57;102280.28;4403263;32;20180;-67
2021/04/12 07:55:49;;;;;;;2.40;2.30;;;;;;;4.05;74.23;102278.56;4395891;32;20184;-67
2021/04/12 07:58:29;;;;;;;2.50;2.40;;;;;;;4.25;74.06;102283.78;4390199;32;20825;-68
2021/04/12 08:01:13;;;;;;;2.53;2.42;;;;;;;3.97;74.08;102284.66;4416220;32;20077;-68
2021/04/12 08:03:41;;;;;;;2.40;2.30;;;;;;;4.19;75.44;102285.53;4397499;32;20093;-68
2021/04/12 08:06:44;;;;;;;2.78;2.55;;;;;;;4.83;74.39;102285.41;4400075;32;20773;-69
2021/04/12 08:09:16;;;;;;;2.60;2.50;;;;;;;4.96;72.60;102284.53;4406152;32;20298;-69
2021/04/12 08:12:06;;;;;;;2.60;2.50;;;;;;;5.30;72.46;102293.06;4409988;32;20703;-67
2021/04/12 08:14:59;;;;;;;2.67;2.58;;;;;;;5.07;70.07;102287.97;4396995;32;20091;-67
2021/04/12 08:17:45;;;;;;;;;;;;;;;5.19;70.47;102289.62;4400624;32;20323;-66
2021/04/12 08:20:32;;;;;;;2.50;2.40;;;;;;;4.06;73.24;102290.72;4380923;32;19975;-66
2021/04/12 08:23:16;;;;;;;2.72;2.62;;;;;;;4.27;73.82;102314.13;4403138;32;20081;-65
2021/04/12 08:26:16;;;;;;;2.47;2.37;;;;;;;4.08;73.42;102302.84;4409274;32;20178;-66
2021/04/12 08:28:55;;;;;;;2.35;2.25;;;;;;;4.13;74.33;102306.31;4410481;32;20095;-66
2021/04/12 08:31:39;;;;;;;2.72;2.62;;;;;;;4.38;73.91;102307.16;4402105;32;20065;-66
2021/04/12 08:34:20;;;;;;;2.20;2.10;;;;;;;4.62;73.47;102304.56;4406507;32;20089;-68
2021/04/12 08:37:07;;;;;;;2.50;2.40;;;;;;;5.24;72.35;102295.69;4407261;32;20070;-66
2021/04/12 08:39:47;;;;;;;2.53;2.42;;;;;;;6.01;70.58;102295.25;4390863;32;20088;-66
2021/04/12 08:42:50;;;;;;;2.50;2.40;;;;;;;6.73;66.90;102297.22;4382342;32;20069;-66
2021/04/12 08:45:24;;;;;;;2.72;2.62;;;;;;;6.37;66.16;102308.88;4407891;32;20096;-65
2021/04/12 08:48:08;;;;;;;2.65;2.55;;;;;;;6.01;67.59;102308.28;4411226;32;20264;-64
2021/04/12 08:50:52;;;;;;;2.80;2.70;;;;;;;5.78;67.72;102311.91;4396289;32;20084;-64
2021/04/12 08:53:36;;;;;;;6.68;2.80;;;;;;;5.78;68.08;102316.25;4400491;32;20068;-63
2021/04/12 08:56:26;;;;;;;2.80;2.70;;;;;;;6.16;66.22;102316.00;4411086;32;20081;-65
2021/04/12 08:59:19;;;;;;;2.90;2.80;;;;;;;5.84;67.52;102311.00;4383120;32;20092;-64
2021/04/12 09:02:03;;;;;;;2.60;2.50;;;;;;;5.68;67.94;102322.38;4397511;32;20129;-66
2021/04/12 09:04:37;;;;;;;2.80;2.62;;;;;;;5.73;66.01;102315.41;4404132;32;20637;-63
2021/04/12 09:07:27;;;;;;;2.70;2.60;;;;;;;5.56;68.15;102312.91;4388340;32;20089;-69
2021/04/12 09:10:03;;;;;;;2.37;2.28;;;;;;;5.45;68.16;102310.34;4378421;32;20296;-66
2021/04/12 09:12:39;;;;;;;4.03;3.83;;;;;;;5.26;68.20;102309.56;4349681;32;21006;-66
2021/04/12 09:15:43;;;;;;;4.30;4.10;;;;;;;5.18;69.39;102317.41;4347032;32;21014;-65
2021/04/12 09:18:17;;;;;;;;;;;;;;;5.44;67.25;102319.03;4390076;32;20084;-67
2021/04/12 09:20:48;;;;;;;2.67;2.58;;;;;;;5.93;67.23;102321.37;4387028;32;19991;-67
2021/04/12 09:23:28;;;;;;;3.35;3.25;;;;;;;5.90;67.02;102320.53;4396727;32;20690;-67
2021/04/12 09:26:21;;;;;;;2.55;2.45;;;;;;;6.28;66.87;102317.66;4366407;32;20741;-67
2021/04/12 09:29:02;;;;;;;2.60;2.50;;;;;;;6.14;65.28;102320.38;4403906;32;20112;-68
2021/04/12 09:31:45;;;;;;;2.75;2.65;;;;;;;5.93;64.57;102315.28;4393954;32;20700;-69
2021/04/12 09:34:29;;;;;;;3.40;3.30;;;;;;;6.13;67.12;102310.84;4382494;32;20122;-68
2021/04/12 09:37:32;;;;;;;2.75;2.65;;;;;;;6.11;65.00;102317.78;4402448;32;20119;-67
2021/04/12 09:40:41;;;;;;;3.10;2.90;;;;;;;6.86;62.63;102310.16;4412510;32;20621;-67
2021/04/12 09:43:29;;;;;;;3.35;3.25;;;;;;;6.57;60.30;102269.56;4397797;32;20096;-68
2021/04/12 09:46:25;;;;;;;2.80;2.70;;;;;;;6.86;60.65;102331.03;4380741;32;20100;-68
2021/04/12 09:49:06;;;;;;;2.75;2.65;;;;;;;6.82;63.52;102326.75;4381560;32;20073;-67
2021/04/12 09:51:39;;;;;;;2.55;2.45;;;;;;;6.46;63.25;102316.62;4391325;32;20730;-68
2021/04/12 09:54:40;;;;;;;3.33;3.22;;;;;;;6.85;63.60;102319.72;4378493;32;20697;-68
2021/04/12 09:57:43;;;;;;;3.25;3.15;;;;;;;7.14;60.76;102311.56;4379276;32;20572;-68
2021/04/12 10:00:43;;;;;;;3.12;3.03;;;;;;;6.87;58.59;102322.31;4407675;32;20206;-67
2021/04/12 10:03:19;;;;;;;3.25;3.15;;;;;;;6.70;59.13;102315.53;4391177;32;20069;-69
2021/04/12 10:05:56;;;;;;;2.62;2.53;;;;;;;6.47;58.43;102315.75;4382136;32;20128;-69
2021/04/12 10:08:27;;;;;;;2.70;2.60;;;;;;;6.40;60.60;102319.31;4403005;32;20096;-68
2021/04/12 10:11:02;;;;;;;2.97;2.87;;;;;;;7.02;59.61;102314.34;4391638;32;20651;-69
2021/04/12 10:13:41;;;;;;;2.67;2.58;;;;;;;7.18;56.68;102312.41;4368005;32;20070;-69
2021/04/12 10:16:20;;;;;;;4.95;4.55;;;;;;;7.21;56.26;102306.28;4381459;32;20138;-68
2021/04/12 10:18:49;;;;;;;2.78;2.67;;;;;;;7.33;52.92;102314.81;4364615;32;20072;-68
2021/04/12 10:21:21;;;;;;;3.62;3.53;;;;;;;6.49;50.13;102224.44;4385748;32;20162;-68
2021/04/12 10:23:59;;;;;;;2.80;2.70;;;;;;;7.38;49.38;102315.63;4361257;32;20256;-69
2021/04/12 10:26:27;;;;;;;4.12;3.92;;;;;;;7.50;49.07;102312.00;4377606;32;20713;-69
2021/04/12 10:29:07;;;;;;;2.78;2.67;;;;;;;7.61;51.18;102308.37;4373179;32;20093;-69
2021/04/12 10:31:35;;;;;;;2.80;2.70;;;;;;;8.18;49.85;102297.94;4380113;32;20081;-68
2021/04/12 10:34:30;;;;;;;2.92;2.83;;;;;;;7.83;50.99;102299.31;4389457;32;20079;-68
2021/04/12 10:37:34;;;;;;;2.80;2.70;;;;;;;8.39;51.51;102300.16;4376811;32;20083;-68
2021/04/12 10:40:21;;;;;;;3.12;3.03;;;;;;;8.09;52.00;102304.16;4384356;32;20237;-71
2021/04/12 10:42:52;;;;;;;2.80;2.70;;;;;;;7.53;53.00;102311.94;4381859;32;21014;-68
2021/04/12 10:45:24;;;;;;;2.83;2.72;;;;;;;7.18;56.64;102322.84;4375844;32;20750;-68
2021/04/12 10:48:14;;;;;;;2.90;2.80;;;;;;;7.11;54.33;102324.66;4368286;32;20088;-69
2021/04/12 10:51:03;;;;;;;2.70;2.60;;;;;;;6.84;58.35;102338.03;4381427;32;20104;-68
2021/04/12 10:53:37;;;;;;;3.20;3.10;;;;;;;6.87;57.20;102328.41;4390904;32;20104;-68
2021/04/12 10:56:40;;;;;;;3.42;3.33;;;;;;;5.62;58.41;102104.50;4385187;32;20079;-69
2021/04/12 10:59:42;;;;;;;3.53;3.43;;;;;;;6.67;57.46;102331.22;4373830;32;20085;-68
2021/04/12 11:02:31;;;;;;;3.28;3.17;;;;;;;6.83;58.55;102336.28;4405736;32;20064;-68
2021/04/12 11:04:59;;;;;;;2.92;2.83;;;;;;;6.20;58.03;102345.53;4348720;32;20100;-68
2021/04/12 11:07:54;;;;;;;3.83;3.70;;;;;;;6.12;60.90;102339.50;4386286;32;20061;-67
2021/04/12 11:10:45;;;;;;;2.65;2.55;;;;;;;6.94;59.94;102340.50;4381242;32;20869;-67
2021/04/12 11:13:32;;;;;;;2.70;2.60;;;;;;;7.60;57.29;102344.09;4392797;32;20081;-66
2021/04/12 11:16:23;;;;;;;2.90;2.80;;;;;;;8.33;55.02;102349.09;4393518;32;20108;-65
2021/04/12 11:19:07;;;;;;;2.78;2.67;;;;;;;7.97;55.54;102344.41;4377207;32;20069;-65
2021/04/12 11:21:41;;;;;;;2.70;2.60;;;;;;;8.06;52.33;102334.69;4409542;32;20088;-67
2021/04/12 11:24:28;;;;;;;2.87;2.78;;;;;;;8.17;48.12;102343.25;4382823;32;20175;-67
2021/04/12 11:27:25;;;;;;;3.00;2.90;;;;;;;8.30;46.66;102339.56;4380157;32;20877;-65
2021/04/12 11:30:28;;;;;;;2.80;2.70;;;;;;;7.57;50.07;102347.59;4394751;32;21120;-66
2021/04/12 11:33:12;;;;;;;2.80;2.70;;;;;;;7.82;48.33;102356.84;4401831;32;20074;-65
2021/04/12 11:35:51;;;;;;;3.00;2.90;;;;;;;7.70;54.79;102355.28;4410570;32;21995;-66
2021/04/12 11:38:18;;;;;;;2.80;2.70;;;;;;;7.03;57.87;102357.81;4370074;32;20083;-67
2021/04/12 11:40:49;;;;;;;3.12;3.03;;;;;;;6.28;60.65;102364.59;4375087;32;20083;-67
2021/04/12 11:43:16;;;;;;;2.70;2.60;;;;;;;6.00;63.97;102371.72;4381656;32;20095;-65
2021/04/12 11:45:45;;;;;;;2.70;2.60;;;;;;;5.61;63.28;102378.84;4377316;32;20084;-66
2021/04/12 11:48:14;;;;;;;2.70;2.60;;;;;;;5.22;65.30;102401.56;4384754;32;20742;-67
2021/04/12 11:50:57;;;;;;;2.70;2.60;;;;;;;4.02;69.81;102408.47;4400710;32;20089;-67
2021/04/12 11:53:28;;;;;;;2.50;2.40;;;;;;;3.59;71.48;102412.66;4380229;32;20077;-66
2021/04/12 11:56:01;;;;;;;2.58;2.47;;;;;;;2.92;74.05;102417.44;4408195;32;20107;-66
2021/04/12 11:58:39;;;;;;;2.37;2.28;;;;;;;2.46;76.29;102428.28;4377872;32;20080;-66
2021/04/12 12:01:24;;;;;;;2.30;2.20;;;;;;;2.86;76.08;102423.44;4370874;32;20583;-67
2021/04/12 12:04:15;;;;;;;2.50;2.40;;;;;;;3.20;75.41;102424.53;4382350;32;20204;-70
2021/04/12 12:06:52;;;;;;;2.50;2.40;;;;;;;3.48;73.57;102423.84;4378646;32;20143;-70
2021/04/12 12:09:49;;;;;;;2.40;2.30;;;;;;;3.70;73.29;102430.00;4420185;32;20079;-69
2021/04/12 12:12:17;;;;;;;2.87;2.78;;;;;;;4.00;73.09;102424.91;4393170;32;20088;-69
2021/04/12 12:15:18;;;;;;;2.60;2.50;;;;;;;4.61;71.91;102438.91;4409214;32;20224;-70
2021/04/12 12:17:45;;;;;;;2.62;2.53;;;;;;;5.15;74.20;102442.34;4384596;32;20606;-70
2021/04/12 12:20:17;;;;;;;2.50;2.40;;;;;;;5.00;70.02;102431.94;4368299;32;20976;-70
2021/04/12 12:22:53;;;;;;;3.33;3.22;;;;;;;5.68;70.13;102447.41;4373360;32;20103;-70
2021/04/12 12:25:28;;;;;;;2.53;2.42;;;;;;;5.44;68.05;102453.56;4370218;32;20089;-70
2021/04/12 12:28:18;;;;;;;3.20;3.10;;;;;;;5.37;69.90;102455.31;4379734;32;20123;-71
2021/04/12 12:30:54;;;;;;;2.50;2.40;;;;;;;5.01;68.01;102451.88;4379710;32;20108;-70
2021/04/12 12:33:28;;;;;;;2.55;2.45;;;;;;;5.17;68.33;102453.63;4368090;32;20087;-70
2021/04/12 12:36:06;;;;;;;2.50;2.40;;;;;;;4.62;69.44;102416.37;4399499;32;20199;-70
2021/04/12 12:39:03;;;;;;;2.40;2.30;;;;;;;4.38;71.44;102472.66;4370089;32;20072;-70
2021/04/12 12:41:30;;;;;;;2.50;2.40;;;;;;;5.00;71.63;102435.41;4405049;32;20489;-70
2021/04/12 12:44:04;;;;;;;2.60;2.50;;;;;;;5.32;70.27;102464.88;4375826;32;20065;-70
2021/04/12 12:46:31;;;;;;;2.87;2.78;;;;;;;5.81;69.23;102462.09;4376979;32;20076;-70
2021/04/12 12:49:07;;;;;;;3.40;3.30;;;;;;;5.71;71.10;102478.66;4382229;32;20501;-70
2021/04/12 12:51:39;;;;;;;2.67;2.58;;;;;;;5.44;69.92;102466.59;4344084;32;20104;-70
2021/04/12 12:54:14;;;;;;;2.97;2.87;;;;;;;5.05;71.97;102471.84;4367416;32;20072;-70